Time,TemperatureF,DewpointF,PressureIn,WindDirection,WindDirectionDegrees,WindSpeedMPH,WindSpeedGustMPH,Humidity,HourlyPrecipIn,Conditions,Clouds,dailyrainin,SoftwareType,DateUTC
2013-05-18 00:05:00,44.1,39.0,30.11,WSW,246,0.0,0.0,82,0.00,,,0.00,weatherlink.com 1.10,2013-05-18 04:05:00,
2013-05-18 00:20:00,43.5,39.0,30.11,WSW,246,0.0,0.0,84,0.00,,,0.00,weatherlink.com 1.10,2013-05-18 04:20:00,
2013-05-18 00:35:00,42.9,38.0,30.11,WSW,246,0.0,0.0,84,0.00,,,0.00,weatherlink.com 1.10,2013-05-18 04:35:00,
2013-05-18 00:50:00,42.4,39.0,30.10,WSW,246,0.0,0.0,86,0.00,,,0.00,weatherlink.com 1.10,2013-05-18 04:50:00,
2013-05-18 01:05:00,41.9,39.0,30.10,SSW,212,0.0,0.0,89,0.00,,,0.00,weatherlink.com 1.10,2013-05-18 05:05:00,
2013-05-18 01:20:00,41.9,39.0,30.10,WSW,240,0.0,0.0,90,0.00,,,0.00,weatherlink.com 1.10,2013-05-18 05:20:00,
2013-05-18 01:35:00,41.5,39.0,30.09,WSW,255,0.0,0.0,90,0.00,,,0.00,weatherlink.com 1.10,2013-05-18 05:35:00,
2013-05-18 01:50:00,41.2,39.0,30.09,WSW,256,0.0,1.0,90,0.00,,,0.00,weatherlink.com 1.10,2013-05-18 05:50:00,
2013-05-18 02:05:00,40.4,38.0,30.09,WSW,256,0.0,0.0,90,0.00,,,0.00,weatherlink.com 1.10,2013-05-18 06:05:00,
2013-05-18 02:20:00,40.0,38.0,30.08,WSW,256,0.0,0.0,91,0.00,,,0.00,weatherlink.com 1.10,2013-05-18 06:20:00,
2013-05-18 02:35:00,39.6,37.0,30.08,WSW,255,0.0,0.0,91,0.00,,,0.00,weatherlink.com 1.10,2013-05-18 06:35:00,
2013-05-18 02:50:00,39.1,37.0,30.08,WSW,254,0.0,0.0,91,0.00,,,0.00,weatherlink.com 1.10,2013-05-18 06:50:00,
2013-05-18 03:05:00,38.6,37.0,30.09,WSW,246,0.0,0.0,92,0.00,,,0.00,weatherlink.com 1.10,2013-05-18 07:05:00,
2013-05-18 03:20:00,38.5,37.0,30.09,WSW,249,0.0,0.0,93,0.00,,,0.00,weatherlink.com 1.10,2013-05-18 07:20:00,
2013-05-18 03:35:00,38.2,36.0,30.09,WSW,248,0.0,0.0,93,0.00,,,0.00,weatherlink.com 1.10,2013-05-18 07:35:00,
2013-05-18 03:50:00,37.9,36.0,30.09,WSW,245,0.0,0.0,92,0.00,,,0.00,weatherlink.com 1.10,2013-05-18 07:50:00,
2013-05-18 04:05:00,38.1,36.0,30.10,WSW,248,0.0,0.0,93,0.00,,,0.00,weatherlink.com 1.10,2013-05-18 08:05:00,
2013-05-18 04:20:00,38.4,37.0,30.11,WSW,249,0.0,0.0,93,0.00,,,0.00,weatherlink.com 1.10,2013-05-18 08:20:00,
2013-05-18 04:35:00,38.8,37.0,30.12,WSW,245,0.0,0.0,93,0.00,,,0.00,weatherlink.com 1.10,2013-05-18 08:35:00,
2013-05-18 04:50:00,39.4,38.0,30.11,WSW,246,0.0,0.0,94,0.00,,,0.00,weatherlink.com 1.10,2013-05-18 08:50:00,
2013-05-18 05:05:00,39.7,38.0,30.11,WSW,246,0.0,0.0,94,0.00,,,0.00,weatherlink.com 1.10,2013-05-18 09:05:00,
2013-05-18 05:20:00,40.1,39.0,30.11,WSW,246,0.0,0.0,94,0.00,,,0.00,weatherlink.com 1.10,2013-05-18 09:20:00,
2013-05-18 05:35:00,40.0,39.0,30.10,WSW,246,0.0,0.0,94,0.00,,,0.00,weatherlink.com 1.10,2013-05-18 09:35:00,
2013-05-18 05:50:00,39.8,38.0,30.10,WSW,246,0.0,0.0,94,0.00,,,0.00,weatherlink.com 1.10,2013-05-18 09:50:00,
2013-05-18 06:05:00,39.6,38.0,30.11,WSW,246,0.0,0.0,94,0.00,,,0.00,weatherlink.com 1.10,2013-05-18 10:05:00,
2013-05-18 06:20:00,39.5,38.0,30.11,WSW,246,0.0,0.0,93,0.00,,,0.00,weatherlink.com 1.10,2013-05-18 10:20:00,
2013-05-18 06:35:00,41.1,40.0,30.11,WSW,246,0.0,0.0,94,0.00,,,0.00,weatherlink.com 1.10,2013-05-18 10:35:00,
2013-05-18 06:50:00,42.9,40.0,30.11,WSW,246,0.0,0.0,90,0.00,,,0.00,weatherlink.com 1.10,2013-05-18 10:50:00,
2013-05-18 07:05:00,42.9,41.0,30.12,WSW,246,0.0,0.0,92,0.00,,,0.00,weatherlink.com 1.10,2013-05-18 11:05:00,
2013-05-18 07:20:00,44.2,42.0,30.12,NE,39,2.0,2.0,91,0.00,,,0.00,weatherlink.com 1.10,2013-05-18 11:20:00,
2013-05-18 07:35:00,45.9,43.0,30.11,NE,39,0.0,0.0,88,0.00,,,0.00,weatherlink.com 1.10,2013-05-18 11:35:00,
2013-05-18 07:50:00,47.3,42.0,30.12,NNE,14,0.0,2.0,82,0.00,,,0.00,weatherlink.com 1.10,2013-05-18 11:50:00,
2013-05-18 08:05:00,48.5,42.0,30.12,NE,53,1.0,4.0,79,0.00,,,0.00,weatherlink.com 1.10,2013-05-18 12:05:00,
2013-05-18 08:21:00,49.9,42.0,30.12,ENE,70,3.0,3.0,75,0.00,,,0.00,weatherlink.com 1.10,2013-05-18 12:21:00,
2013-05-18 08:36:00,51.6,43.0,30.12,East,91,5.0,7.0,72,0.00,,,0.00,weatherlink.com 1.10,2013-05-18 12:36:00,
2013-05-18 08:51:00,53.2,43.0,30.12,ESE,104,7.0,9.0,69,0.00,,,0.00,weatherlink.com 1.10,2013-05-18 12:51:00,
2013-05-18 09:06:00,54.5,44.0,30.12,ESE,112,4.0,10.0,68,0.00,,,0.00,weatherlink.com 1.10,2013-05-18 13:06:00,
2013-05-18 09:21:00,55.6,43.0,30.13,East,101,6.0,8.0,63,0.00,,,0.00,weatherlink.com 1.10,2013-05-18 13:21:00,
2013-05-18 09:36:00,56.2,42.0,30.12,East,79,7.0,10.0,60,0.00,,,0.00,weatherlink.com 1.10,2013-05-18 13:36:00,
2013-05-18 09:51:00,57.2,43.0,30.12,East,80,6.0,9.0,60,0.00,,,0.00,weatherlink.com 1.10,2013-05-18 13:51:00,
2013-05-18 10:06:00,58.4,43.0,30.12,SE,136,7.0,7.0,56,0.00,,,0.00,weatherlink.com 1.10,2013-05-18 14:06:00,
2013-05-18 10:21:00,59.6,43.0,30.11,SSE,152,9.0,14.0,54,0.00,,,0.00,weatherlink.com 1.10,2013-05-18 14:21:00,
2013-05-18 10:36:00,59.9,43.0,30.12,SE,129,7.0,13.0,53,0.00,,,0.00,weatherlink.com 1.10,2013-05-18 14:36:00,
2013-05-18 10:51:00,60.0,43.0,30.11,SE,128,10.0,12.0,53,0.00,,,0.00,weatherlink.com 1.10,2013-05-18 14:51:00,
2013-05-18 11:06:00,61.1,42.0,30.11,SSE,153,7.0,16.0,50,0.00,,,0.00,weatherlink.com 1.10,2013-05-18 15:06:00,
2013-05-18 11:21:00,61.5,43.0,30.11,SE,128,13.0,15.0,50,0.00,,,0.00,weatherlink.com 1.10,2013-05-18 15:21:00,
2013-05-18 11:36:00,61.8,43.0,30.11,SSE,165,8.0,15.0,50,0.00,,,0.00,weatherlink.com 1.10,2013-05-18 15:36:00,
2013-05-18 11:51:00,62.5,42.0,30.10,SSE,156,9.0,16.0,48,0.00,,,0.00,weatherlink.com 1.10,2013-05-18 15:51:00,
2013-05-18 12:06:00,63.0,43.0,30.10,SE,129,13.0,13.0,49,0.00,,,0.00,weatherlink.com 1.10,2013-05-18 16:06:00,
2013-05-18 12:21:00,62.7,45.0,30.09,SE,129,11.0,14.0,52,0.00,,,0.00,weatherlink.com 1.10,2013-05-18 16:21:00,
2013-05-18 12:36:00,62.5,46.0,30.09,SE,138,11.0,14.0,55,0.00,,,0.00,weatherlink.com 1.10,2013-05-18 16:36:00,
2013-05-18 12:51:00,62.9,44.0,30.09,SE,139,9.0,15.0,51,0.00,,,0.00,weatherlink.com 1.10,2013-05-18 16:51:00,
2013-05-18 13:06:00,62.7,45.0,30.08,SE,141,11.0,14.0,53,0.00,,,0.00,weatherlink.com 1.10,2013-05-18 17:06:00,
2013-05-18 13:21:00,62.7,45.0,30.08,SSE,164,10.0,14.0,52,0.00,,,0.00,weatherlink.com 1.10,2013-05-18 17:21:00,
2013-05-18 13:36:00,61.9,44.0,30.08,SE,138,10.0,15.0,52,0.00,,,0.00,weatherlink.com 1.10,2013-05-18 17:36:00,
2013-05-18 13:51:00,62.1,44.0,30.07,SE,132,7.0,14.0,51,0.00,,,0.00,weatherlink.com 1.10,2013-05-18 17:51:00,
2013-05-18 14:06:00,62.1,44.0,30.07,SE,142,9.0,14.0,51,0.00,,,0.00,weatherlink.com 1.10,2013-05-18 18:06:00,
2013-05-18 14:21:00,62.6,42.0,30.07,SE,141,11.0,15.0,48,0.00,,,0.00,weatherlink.com 1.10,2013-05-18 18:21:00,
2013-05-18 14:36:00,63.4,43.0,30.06,SE,136,10.0,17.0,47,0.00,,,0.00,weatherlink.com 1.10,2013-05-18 18:36:00,
2013-05-18 14:51:00,63.9,44.0,30.06,SE,141,13.0,18.0,48,0.00,,,0.00,weatherlink.com 1.10,2013-05-18 18:51:00,
2013-05-18 15:06:00,63.2,43.0,30.06,SE,138,10.0,17.0,48,0.00,,,0.00,weatherlink.com 1.10,2013-05-18 19:06:00,
2013-05-18 15:21:00,62.2,43.0,30.06,SSE,150,7.0,17.0,50,0.00,,,0.00,weatherlink.com 1.10,2013-05-18 19:21:00,
2013-05-18 15:37:00,62.1,43.0,30.05,SE,139,11.0,17.0,49,0.00,,,0.00,weatherlink.com 1.10,2013-05-18 19:37:00,
2013-05-18 15:52:00,61.8,43.0,30.05,SSE,165,9.0,16.0,51,0.00,,,0.00,weatherlink.com 1.10,2013-05-18 19:52:00,
2013-05-18 16:07:00,61.7,43.0,30.04,South,173,10.0,14.0,51,0.00,,,0.00,weatherlink.com 1.10,2013-05-18 20:07:00,
2013-05-18 16:22:00,61.1,43.0,30.04,SSE,153,7.0,14.0,51,0.00,,,0.00,weatherlink.com 1.10,2013-05-18 20:22:00,
2013-05-18 16:37:00,60.5,45.0,30.03,SE,145,7.0,13.0,57,0.00,,,0.00,weatherlink.com 1.10,2013-05-18 20:37:00,
2013-05-18 16:52:00,59.9,43.0,30.03,SSE,153,7.0,12.0,55,0.00,,,0.00,weatherlink.com 1.10,2013-05-18 20:52:00,
2013-05-18 17:07:00,59.7,45.0,30.03,SE,143,9.0,11.0,58,0.00,,,0.00,weatherlink.com 1.10,2013-05-18 21:07:00,
2013-05-18 17:22:00,60.1,45.0,30.02,SE,129,8.0,11.0,57,0.00,,,0.00,weatherlink.com 1.10,2013-05-18 21:22:00,
2013-05-18 17:37:00,60.2,43.0,30.02,SSE,167,6.0,13.0,54,0.00,,,0.00,weatherlink.com 1.10,2013-05-18 21:37:00,
2013-05-18 17:52:00,59.6,44.0,30.02,SE,133,7.0,12.0,56,0.00,,,0.00,weatherlink.com 1.10,2013-05-18 21:52:00,
2013-05-18 18:07:00,58.9,43.0,30.01,SSW,197,3.0,11.0,56,0.00,,,0.00,weatherlink.com 1.10,2013-05-18 22:07:00,
2013-05-18 18:22:00,58.6,43.0,30.02,SSE,159,6.0,9.0,57,0.00,,,0.00,weatherlink.com 1.10,2013-05-18 22:22:00,
2013-05-18 18:37:00,58.2,45.0,30.01,SE,129,5.0,6.0,63,0.00,,,0.00,weatherlink.com 1.10,2013-05-18 22:37:00,
2013-05-18 18:52:00,57.7,44.0,30.00,SE,129,4.0,5.0,60,0.00,,,0.00,weatherlink.com 1.10,2013-05-18 22:52:00,
2013-05-18 19:07:00,57.7,45.0,30.00,SE,136,3.0,5.0,62,0.00,,,0.00,weatherlink.com 1.10,2013-05-18 23:07:00,
2013-05-18 19:22:00,57.5,46.0,30.00,SE,146,3.0,4.0,65,0.00,,,0.00,weatherlink.com 1.10,2013-05-18 23:22:00,
2013-05-18 19:37:00,57.2,46.0,30.00,SE,129,2.0,4.0,66,0.00,,,0.00,weatherlink.com 1.10,2013-05-18 23:37:00,
2013-05-18 19:52:00,55.8,47.0,29.99,East,101,0.0,2.0,73,0.00,,,0.00,weatherlink.com 1.10,2013-05-18 23:52:00,
2013-05-18 20:07:00,55.9,48.0,30.00,SE,136,1.0,2.0,75,0.00,,,0.00,weatherlink.com 1.10,2013-05-19 00:07:00,
2013-05-18 20:22:00,55.9,46.0,30.00,SE,138,1.0,2.0,70,0.00,,,0.00,weatherlink.com 1.10,2013-05-19 00:22:00,
2013-05-18 20:38:00,55.9,47.0,29.99,ESE,119,0.0,2.0,73,0.00,,,0.00,weatherlink.com 1.10,2013-05-19 00:38:00,
2013-05-18 21:07:00,55.6,47.0,29.99,ESE,105,0.0,1.0,74,0.00,,,0.00,weatherlink.com 1.10,2013-05-19 01:07:00,
2013-05-18 21:22:00,56.0,47.0,29.98,ENE,77,0.0,2.0,71,0.00,,,0.00,weatherlink.com 1.10,2013-05-19 01:22:00,
2013-05-18 21:37:00,56.0,47.0,29.98,ENE,77,0.0,1.0,72,0.00,,,0.00,weatherlink.com 1.10,2013-05-19 01:37:00,
2013-05-18 21:52:00,55.8,46.0,29.98,East,84,3.0,3.0,69,0.00,,,0.00,weatherlink.com 1.10,2013-05-19 01:52:00,
2013-05-18 22:07:00,55.8,45.0,29.98,East,81,2.0,2.0,68,0.00,,,0.00,weatherlink.com 1.10,2013-05-19 02:07:00,
2013-05-18 22:22:00,55.4,47.0,29.98,ESE,117,0.0,3.0,73,0.00,,,0.00,weatherlink.com 1.10,2013-05-19 02:22:00,
2013-05-18 22:37:00,55.3,46.0,29.98,SE,124,2.0,3.0,71,0.00,,,0.00,weatherlink.com 1.10,2013-05-19 02:37:00,
2013-05-18 22:52:00,55.4,46.0,29.97,East,97,1.0,2.0,71,0.00,,,0.00,weatherlink.com 1.10,2013-05-19 02:52:00,
2013-05-18 23:07:00,55.0,45.0,29.97,ESE,103,0.0,1.0,70,0.00,,,0.00,weatherlink.com 1.10,2013-05-19 03:07:00,
2013-05-18 23:22:00,55.1,44.0,29.96,ESE,122,3.0,6.0,67,0.00,,,0.00,weatherlink.com 1.10,2013-05-19 03:22:00,
2013-05-18 23:37:00,55.1,44.0,29.96,SSE,155,0.0,3.0,66,0.00,,,0.00,weatherlink.com 1.10,2013-05-19 03:37:00,
2013-05-18 23:52:00,55.0,46.0,29.96,SE,141,2.0,3.0,71,0.00,,,0.00,weatherlink.com 1.10,2013-05-19 03:52:00,